createdAt,value
2023-01-19T00:00:48.088Z,91301.00
2023-01-19T00:01:48.078Z,91301.00
2023-01-19T00:02:48.142Z,91301.00
2023-01-19T00:03:48.082Z,91308.00
2023-01-19T00:04:48.077Z,91308.00
2023-01-19T00:05:48.102Z,91301.00
2023-01-19T00:06:48.090Z,91301.00
2023-01-19T00:07:48.089Z,91301.00
2023-01-19T00:08:48.093Z,91295.00
2023-01-19T00:09:48.088Z,91295.00
2023-01-19T00:10:48.152Z,91299.00
2023-01-19T00:11:48.107Z,91308.00
2023-01-19T00:13:48.127Z,91312.00
2023-01-19T00:46:48.588Z,91360.00
2023-01-19T00:47:48.596Z,91362.00
2023-01-19T00:48:48.625Z,91362.00
2023-01-19T00:49:48.625Z,91362.00
2023-01-19T00:50:48.634Z,91360.00
2023-01-19T00:51:48.647Z,91362.00
2023-01-19T00:52:48.674Z,91362.00
2023-01-19T00:53:48.695Z,91363.00
2023-01-19T00:54:48.716Z,91365.00
2023-01-19T00:55:48.715Z,91367.00
2023-01-19T00:56:48.744Z,91367.00
2023-01-19T00:57:48.742Z,91367.00
2023-01-19T00:58:48.748Z,91371.00
2023-01-19T00:59:48.757Z,91371.00
2023-01-19T01:00:48.917Z,91371.00
2023-01-19T01:01:48.898Z,91373.00
2023-01-19T01:02:48.895Z,91375.00
2023-01-19T01:03:48.819Z,91373.00
2023-01-19T01:04:48.828Z,91373.00
2023-01-19T01:05:48.830Z,91375.00
2023-01-19T01:06:48.849Z,91369.00
2023-01-19T01:07:48.872Z,91371.00
2023-01-19T01:08:48.876Z,91371.00
2023-01-19T01:09:48.918Z,91371.00
2023-01-19T01:10:48.949Z,91371.00
2023-01-19T01:11:48.955Z,91373.00
2023-01-19T01:12:57.411Z,91375.00
2023-01-19T01:13:49.977Z,91375.00
2023-01-19T01:14:49.059Z,91377.00
2023-01-19T01:15:48.984Z,91381.00
2023-01-19T01:16:49.021Z,91383.00
2023-01-19T01:17:48.993Z,91385.00
2023-01-19T01:18:48.989Z,91387.00
2023-01-19T01:19:48.993Z,91393.00
2023-01-19T01:20:49.012Z,91395.00
2023-01-19T01:21:48.989Z,91393.00
2023-01-19T01:22:49.016Z,91397.00
2023-01-19T01:23:49.023Z,91397.00
2023-01-19T01:24:49.019Z,91397.00
2023-01-19T01:25:49.036Z,91401.00
2023-01-19T01:26:49.049Z,91403.00
2023-01-19T01:27:49.037Z,91403.00
2023-01-19T01:28:49.042Z,91403.00
2023-01-19T01:29:49.047Z,91407.00
2023-01-19T01:30:49.059Z,91405.00
2023-01-19T01:31:49.135Z,91409.00
2023-01-19T01:32:49.073Z,91407.00
2023-01-19T01:33:49.083Z,91407.00
2023-01-19T01:34:49.071Z,91410.00
2023-01-19T01:35:49.085Z,91410.00
2023-01-19T01:36:49.097Z,91410.00
2023-01-19T01:37:49.113Z,91412.00
2023-01-19T01:38:49.110Z,91412.00
2023-01-19T01:39:49.138Z,91416.00
2023-01-19T01:40:50.037Z,91414.00
2023-01-19T01:41:49.139Z,91416.00
2023-01-19T01:42:49.149Z,91416.00
2023-01-19T01:43:49.160Z,91420.00
2023-01-19T01:44:49.162Z,91420.00
2023-01-19T01:45:49.317Z,91418.00
2023-01-19T01:46:49.278Z,91420.00
2023-01-19T01:47:49.223Z,91418.00
2023-01-19T01:48:49.231Z,91420.00
2023-01-19T01:49:49.224Z,91420.00
2023-01-19T01:50:49.256Z,91416.00
2023-01-19T01:51:49.266Z,91418.00
2023-01-19T01:53:07.678Z,91418.00
2023-01-19T01:53:50.295Z,91420.00
2023-01-19T01:54:49.302Z,91420.00
2023-01-19T01:55:49.295Z,91420.00
2023-01-19T01:56:49.311Z,91424.00
2023-01-19T01:57:49.301Z,91426.00
2023-01-19T01:58:49.318Z,91424.00
2023-01-19T01:59:49.317Z,91428.00
2023-01-19T02:00:49.430Z,91426.00
2023-01-19T02:01:49.418Z,91424.00
2023-01-19T02:02:49.425Z,91424.00
2023-01-19T02:03:49.428Z,91424.00
2023-01-19T02:04:49.372Z,91420.00
2023-01-19T02:05:49.380Z,91422.00
2023-01-19T02:06:49.391Z,91420.00
2023-01-19T02:07:49.399Z,91418.00
2023-01-19T02:08:49.412Z,91418.00
2023-01-19T02:09:49.408Z,91418.00
2023-01-19T02:10:49.421Z,91418.00
2023-01-19T02:11:49.429Z,91412.00
2023-01-19T02:12:49.441Z,91414.00
2023-01-19T02:13:49.454Z,91414.00
2023-01-19T02:14:49.448Z,91416.00
2023-01-19T02:15:49.515Z,91416.00
2023-01-19T02:16:49.501Z,91418.00
2023-01-19T02:17:49.487Z,91418.00
2023-01-19T02:18:49.493Z,91416.00
2023-01-19T02:19:49.476Z,91416.00
2023-01-19T02:20:49.483Z,91414.00
2023-01-19T02:21:49.500Z,91418.00
2023-01-19T02:22:49.530Z,91420.00
2023-01-19T02:23:50.541Z,91424.00
2023-01-19T02:24:49.592Z,91428.00
2023-01-19T02:25:49.622Z,91426.00
2023-01-19T02:26:50.549Z,91428.00
2023-01-19T02:27:49.669Z,91428.00
2023-01-19T02:28:49.690Z,91430.00
2023-01-19T02:29:49.775Z,91434.00
2023-01-19T02:30:49.780Z,91436.00
2023-01-19T02:31:49.756Z,91438.00
2023-01-19T02:32:49.796Z,91438.00
2023-01-19T02:33:49.791Z,91440.00
2023-01-19T02:34:49.851Z,91446.00
2023-01-19T02:35:49.816Z,91446.00
2023-01-19T02:36:49.887Z,91444.00
2023-01-19T02:37:49.919Z,91446.00
2023-01-19T02:38:49.968Z,91448.00
2023-01-19T02:39:50.083Z,91448.00
2023-01-19T02:40:50.062Z,91452.00
2023-01-19T02:41:50.240Z,91452.00
2023-01-19T02:42:50.185Z,91450.00
2023-01-19T02:43:50.237Z,91452.00
2023-01-19T02:44:50.288Z,91454.00
2023-01-19T02:45:50.427Z,91454.00
2023-01-19T02:46:50.399Z,91452.00
2023-01-19T02:47:50.485Z,91454.00
2023-01-19T02:48:50.512Z,91456.00
2023-01-19T02:49:50.560Z,91459.00
2023-01-19T02:50:50.644Z,91461.00
2023-01-19T02:51:50.695Z,91463.00
2023-01-19T02:52:50.755Z,91463.00
2023-01-19T02:53:50.899Z,91463.00
2023-01-19T03:48:53.951Z,91489.00
2023-01-19T03:49:54.005Z,91493.00
2023-01-19T03:50:54.056Z,91493.00
2023-01-19T03:51:54.128Z,91491.00
2023-01-19T03:52:54.150Z,91491.00
2023-01-19T03:53:54.202Z,91489.00
2023-01-19T03:54:54.246Z,91487.00
2023-01-19T03:55:54.375Z,91491.00
2023-01-19T03:56:54.357Z,91489.00
2023-01-19T03:57:54.411Z,91487.00
2023-01-19T03:58:56.228Z,91487.00
2023-01-19T03:59:54.540Z,91485.00
2023-01-19T04:00:54.695Z,91485.00
2023-01-19T04:01:54.791Z,91487.00
2023-01-19T04:02:54.716Z,91487.00
2023-01-19T04:03:54.767Z,91489.00
2023-01-19T04:04:54.823Z,91495.00
2023-01-19T04:05:54.855Z,91489.00
2023-01-19T04:06:54.932Z,91493.00
2023-01-19T04:07:54.978Z,91487.00
2023-01-19T04:08:55.038Z,91493.00
2023-01-19T04:09:55.093Z,91495.00
2023-01-19T04:10:55.158Z,91499.00
2023-01-19T04:11:55.216Z,91499.00
2023-01-19T04:12:55.276Z,91504.00
2023-01-19T04:13:55.337Z,91503.00
2023-01-19T04:14:55.396Z,91506.00
2023-01-19T04:15:55.488Z,91504.00
2023-01-19T04:16:55.521Z,91504.00
2023-01-19T04:17:55.587Z,91503.00
2023-01-19T04:18:55.646Z,91503.00
2023-01-19T04:19:55.710Z,91501.00
2023-01-19T04:20:56.559Z,91501.00
2023-01-19T04:21:55.812Z,91499.00
2023-01-19T04:22:55.933Z,91504.00
2023-01-19T04:23:55.938Z,91508.00
2023-01-19T04:24:56.004Z,91506.00
2023-01-19T04:25:56.039Z,91504.00
2023-01-19T04:26:56.104Z,91508.00
2023-01-19T04:27:56.229Z,91508.00
2023-01-19T04:28:56.229Z,91506.00
2023-01-19T04:29:56.342Z,91504.00
2023-01-19T04:30:56.427Z,91503.00
2023-01-19T04:31:56.411Z,91503.00
2023-01-19T04:32:56.486Z,91506.00
2023-01-19T04:33:56.516Z,91501.00
2023-01-19T04:34:56.582Z,91506.00
2023-01-19T04:35:56.691Z,91508.00
2023-01-19T04:36:57.070Z,91508.00
2023-01-19T04:37:56.762Z,91508.00
2023-01-19T04:38:56.833Z,91508.00
2023-01-19T04:39:56.890Z,91512.00
2023-01-19T04:40:56.948Z,91514.00
2023-01-19T04:41:57.003Z,91512.00
2023-01-19T04:42:57.087Z,91516.00
2023-01-19T04:43:58.057Z,91512.00
2023-01-19T04:44:57.192Z,91516.00
2023-01-19T04:45:57.291Z,91514.00
2023-01-19T04:46:57.329Z,91516.00
2023-01-19T04:47:57.392Z,91512.00
2023-01-19T04:48:57.442Z,91516.00
2023-01-19T04:49:57.502Z,91518.00
2023-01-19T04:50:57.555Z,91518.00
2023-01-19T04:51:57.616Z,91518.00
2023-01-19T04:52:57.864Z,91522.00
2023-01-19T04:53:57.812Z,91520.00
2023-01-19T04:54:57.783Z,91524.00
2023-01-19T04:55:57.856Z,91524.00
2023-01-19T04:56:57.906Z,91526.00
2023-01-19T04:57:57.967Z,91526.00
2023-01-19T04:58:58.010Z,91524.00
2023-01-19T04:59:58.068Z,91528.00
2023-01-19T05:00:58.159Z,91528.00
2023-01-19T05:01:58.230Z,91528.00
2023-01-19T05:02:58.501Z,91528.00
2023-01-19T05:03:58.345Z,91530.00
2023-01-19T05:04:58.402Z,91532.00
2023-01-19T05:05:58.473Z,91532.00
2023-01-19T05:06:58.526Z,91534.00
2023-01-19T05:07:58.598Z,91532.00
2023-01-19T05:08:58.672Z,91528.00
2023-01-19T05:09:58.758Z,91528.00
2023-01-19T05:10:58.822Z,91528.00
2023-01-19T05:11:58.900Z,91526.00
2023-01-19T05:12:59.324Z,91530.00
2023-01-19T05:13:59.038Z,91528.00
2023-01-19T05:14:59.104Z,91534.00
2023-01-19T05:15:59.228Z,91534.00
2023-01-19T05:16:59.228Z,91534.00
2023-01-19T05:17:59.289Z,91536.00
2023-01-19T05:18:59.367Z,91536.00
2023-01-19T05:19:59.517Z,91538.00
2023-01-19T05:20:59.514Z,91540.00
2023-01-19T05:21:59.589Z,91538.00
2023-01-19T05:22:59.984Z,91538.00
2023-01-19T05:23:59.688Z,91540.00
2023-01-19T05:24:59.754Z,91542.00
2023-01-19T05:26:00.114Z,91538.00
2023-01-19T05:26:59.889Z,91540.00
2023-01-19T05:27:59.961Z,91540.00
2023-01-19T05:29:00.039Z,91540.00
2023-01-19T05:30:00.124Z,91544.00
2023-01-19T05:31:00.279Z,91540.00
2023-01-19T05:32:00.243Z,91542.00
2023-01-19T05:33:00.665Z,91542.00
2023-01-19T05:34:00.379Z,91542.00
2023-01-19T05:35:00.491Z,91540.00
2023-01-19T05:36:00.517Z,91542.00
2023-01-19T05:37:00.596Z,91540.00
2023-01-19T05:38:00.676Z,91544.00
2023-01-19T05:39:00.728Z,91540.00
2023-01-19T05:40:00.800Z,91540.00
2023-01-19T05:41:00.856Z,91540.00
2023-01-19T05:42:00.927Z,91540.00
2023-01-19T05:43:01.648Z,91542.00
2023-01-19T05:44:01.055Z,91542.00
2023-01-19T05:45:01.131Z,91544.00
2023-01-19T05:46:01.212Z,91548.00
2023-01-19T05:47:01.285Z,91544.00
2023-01-19T05:48:01.312Z,91546.00
2023-01-19T05:49:01.366Z,91544.00
2023-01-19T05:50:01.443Z,91550.00
2023-01-19T05:51:01.677Z,91552.00
2023-01-19T05:52:01.595Z,91550.00
2023-01-19T05:53:02.136Z,91558.00
2023-01-19T05:54:01.693Z,91554.00
2023-01-19T05:55:01.751Z,91554.00
2023-01-19T05:56:01.818Z,91552.00
2023-01-19T05:57:02.089Z,91554.00
2023-01-19T05:58:01.939Z,91554.00
2023-01-19T07:08:09.854Z,91641.00
2023-01-19T07:09:09.834Z,91641.00
2023-01-19T07:10:09.811Z,91645.00
2023-01-19T07:11:22.212Z,91645.00
2023-01-19T07:12:10.743Z,91647.00
2023-01-19T07:13:09.711Z,91645.00
2023-01-19T07:15:09.604Z,91643.00
2023-01-19T07:16:11.326Z,91643.00
2023-01-19T07:17:09.531Z,91643.00
2023-01-19T07:18:09.479Z,91643.00
2023-01-19T07:19:10.397Z,91643.00
2023-01-19T07:20:09.394Z,91651.00
2023-01-19T07:21:09.345Z,91649.00
2023-01-19T07:22:09.306Z,91651.00
2023-01-19T07:23:09.261Z,91647.00
2023-01-19T07:24:09.203Z,91649.00
2023-01-19T07:25:11.965Z,91647.00
2023-01-19T07:26:10.905Z,91649.00
2023-01-19T07:27:09.061Z,91649.00
2023-01-19T07:29:08.942Z,91649.00
2023-01-19T07:30:08.898Z,91647.00
2023-01-19T07:31:09.006Z,91653.00
2023-01-19T07:32:08.789Z,91653.00
2023-01-19T07:33:08.722Z,91659.00
2023-01-19T07:34:08.676Z,91659.00
2023-01-19T07:35:08.603Z,91659.00
2023-01-19T07:36:08.540Z,91659.00
2023-01-19T07:37:08.475Z,91659.00
2023-01-19T07:38:08.427Z,91659.00
2023-01-19T07:39:08.352Z,91659.00
2023-01-19T07:40:09.293Z,91661.00
2023-01-19T07:41:08.235Z,91665.00
2023-01-19T07:42:08.181Z,91661.00
2023-01-19T07:43:08.101Z,91661.00
2023-01-19T07:44:08.059Z,91661.00
2023-01-19T07:45:07.986Z,91665.00
2023-01-19T07:46:07.939Z,91667.00
2023-01-19T07:47:07.867Z,91667.00
2023-01-19T07:48:07.793Z,91667.00
2023-01-19T07:49:07.739Z,91669.00
2023-01-19T07:50:07.690Z,91671.00
2023-01-19T07:51:07.650Z,91675.00
2023-01-19T07:52:07.641Z,91675.00
2023-01-19T07:53:07.534Z,91677.00
2023-01-19T07:54:07.536Z,91675.00
2023-01-19T07:55:07.488Z,91677.00
2023-01-19T07:56:07.492Z,91679.00
2023-01-19T07:57:07.485Z,91679.00
2023-01-19T07:58:08.405Z,91681.00
2023-01-19T07:59:07.453Z,91679.00
2023-01-19T08:00:07.428Z,91679.00
2023-01-19T08:01:07.513Z,91681.00
2023-01-19T08:02:07.506Z,91681.00
2023-01-19T08:03:07.436Z,91679.00
2023-01-19T08:04:07.344Z,91677.00
2023-01-19T08:05:07.327Z,91677.00
2023-01-19T08:06:07.316Z,91681.00
2023-01-19T08:07:07.937Z,91681.00
2023-01-19T08:08:07.278Z,91683.00
2023-01-19T08:10:07.242Z,91685.00
2023-01-19T08:12:07.216Z,91681.00
2023-01-19T08:14:08.126Z,91681.00
2023-01-19T08:15:07.183Z,91681.00
2023-01-19T08:16:07.194Z,91685.00
2023-01-19T08:17:07.919Z,91685.00
2023-01-19T08:18:07.112Z,91689.00
2023-01-19T08:19:07.097Z,91689.00
2023-01-19T08:20:07.090Z,91692.00
2023-01-19T08:27:07.845Z,91698.00
2023-01-19T08:28:06.937Z,91696.00
2023-01-19T08:30:06.901Z,91698.00
2023-01-19T08:31:19.469Z,91700.00
2023-01-19T08:33:06.773Z,91704.00
2023-01-19T08:34:06.720Z,91702.00
2023-01-19T08:35:06.654Z,91700.00
2023-01-19T08:36:06.592Z,91700.00
2023-01-19T08:37:06.537Z,91698.00
2023-01-19T08:38:06.493Z,91696.00
2023-01-19T08:39:06.434Z,91698.00
2023-01-19T08:40:06.399Z,91698.00
2023-01-19T08:41:06.339Z,91694.00
2023-01-19T08:42:06.273Z,91696.00
2023-01-19T08:43:06.263Z,91696.00
2023-01-19T08:44:06.279Z,91694.00
2023-01-19T08:45:06.269Z,91696.00
2023-01-19T08:46:06.336Z,91696.00
2023-01-19T08:47:06.355Z,91698.00
2023-01-19T08:48:06.927Z,91700.00
2023-01-19T08:49:06.287Z,91704.00
2023-01-19T08:50:06.293Z,91702.00
2023-01-19T08:51:06.264Z,91704.00
2023-01-19T08:52:06.278Z,91708.00
2023-01-19T08:53:06.215Z,91716.00
2023-01-19T08:54:06.210Z,91720.00
2023-01-19T08:55:06.194Z,91726.00
2023-01-19T08:56:06.164Z,91720.00
2023-01-19T08:57:06.127Z,91722.00
2023-01-19T08:58:06.106Z,91716.00
2023-01-19T09:00:07.018Z,91716.00
2023-01-19T09:01:05.993Z,91718.00
2023-01-19T09:02:05.918Z,91720.00
2023-01-19T09:03:06.224Z,91726.00
2023-01-19T09:04:05.822Z,91724.00
2023-01-19T09:05:05.823Z,91726.00
2023-01-19T09:06:05.741Z,91726.00
2023-01-19T09:08:06.453Z,91726.00
2023-01-19T09:09:05.599Z,91724.00
2023-01-19T09:10:05.528Z,91726.00
2023-01-19T09:12:05.928Z,91728.00
2023-01-19T09:20:05.945Z,91726.00
2023-01-19T09:22:05.934Z,91726.00
2023-01-19T15:04:05.524Z,91749.00
2023-01-19T15:56:05.517Z,91783.00
2023-01-19T15:57:05.539Z,91784.00
2023-01-19T15:58:05.563Z,91784.00
2023-01-19T15:59:05.586Z,91784.00
2023-01-19T16:02:05.825Z,91790.00
2023-01-19T16:03:05.637Z,91790.00
2023-01-19T16:04:05.660Z,91786.00
2023-01-19T16:05:05.649Z,91788.00
2023-01-19T16:06:05.656Z,91786.00
2023-01-19T16:24:05.851Z,91786.00
2023-01-19T16:27:05.876Z,91783.00
2023-01-19T16:28:05.906Z,91783.00
2023-01-19T16:29:05.909Z,91783.00
2023-01-19T16:30:05.919Z,91784.00
2023-01-19T16:31:05.924Z,91783.00
2023-01-19T16:32:05.945Z,91783.00
2023-01-19T16:33:05.977Z,91784.00
2023-01-19T16:34:05.987Z,91788.00
2023-01-19T16:35:06.045Z,91788.00
2023-01-19T16:36:05.997Z,91786.00
2023-01-19T16:37:06.057Z,91786.00
2023-01-19T16:38:06.038Z,91790.00
2023-01-19T16:39:06.020Z,91788.00
2023-01-19T16:40:06.041Z,91786.00
2023-01-19T16:41:06.073Z,91786.00
2023-01-19T16:42:06.071Z,91784.00
2023-01-19T16:43:06.057Z,91783.00
2023-01-19T16:44:06.071Z,91784.00
2023-01-19T16:45:06.053Z,91784.00
2023-01-19T16:46:06.085Z,91786.00
2023-01-19T16:47:06.060Z,91784.00
2023-01-19T16:48:06.070Z,91784.00
2023-01-19T16:49:06.046Z,91786.00
2023-01-19T16:50:06.030Z,91786.00
2023-01-19T16:51:06.032Z,91786.00
2023-01-19T16:52:06.039Z,91784.00
2023-01-19T16:53:06.039Z,91784.00
2023-01-19T16:54:06.038Z,91784.00
2023-01-19T16:55:06.050Z,91786.00
2023-01-19T16:56:06.016Z,91783.00
2023-01-19T16:57:06.019Z,91784.00
2023-01-19T16:58:06.017Z,91784.00
2023-01-19T16:59:06.037Z,91786.00
2023-01-19T17:00:06.027Z,91784.00
2023-01-19T17:01:06.189Z,91784.00
2023-01-19T17:02:06.068Z,91784.00
2023-01-19T17:03:06.061Z,91783.00
2023-01-19T17:04:06.033Z,91783.00
2023-01-19T17:05:06.008Z,91783.00
2023-01-19T17:06:06.020Z,91783.00
2023-01-19T17:07:05.999Z,91784.00
2023-01-19T17:08:06.041Z,91781.00
2023-01-19T17:09:06.009Z,91786.00
2023-01-19T17:10:06.009Z,91781.00
2023-01-19T17:11:06.003Z,91783.00
2023-01-19T17:12:05.980Z,91779.00
2023-01-19T17:13:05.956Z,91783.00
2023-01-19T17:14:05.959Z,91781.00
2023-01-19T17:15:05.953Z,91781.00
2023-01-19T17:16:05.930Z,91783.00
2023-01-19T17:17:05.928Z,91784.00
2023-01-19T17:18:05.924Z,91781.00
2023-01-19T17:19:05.934Z,91781.00
2023-01-19T17:20:05.958Z,91783.00
2023-01-19T17:21:05.938Z,91786.00
2023-01-19T17:22:05.946Z,91786.00
2023-01-19T17:23:05.930Z,91784.00
2023-01-19T17:24:05.943Z,91786.00
2023-01-19T17:25:05.932Z,91786.00
2023-01-19T17:26:05.919Z,91786.00
2023-01-19T17:27:05.920Z,91784.00
2023-01-19T17:28:05.919Z,91783.00
2023-01-19T17:29:05.925Z,91781.00
2023-01-19T17:30:06.566Z,91781.00
2023-01-19T17:31:06.000Z,91779.00
2023-01-19T17:32:05.912Z,91779.00
2023-01-19T17:33:05.918Z,91783.00
2023-01-19T17:34:05.929Z,91781.00
2023-01-19T17:37:05.943Z,91779.00
2023-01-19T17:38:05.991Z,91781.00
2023-01-19T17:39:05.935Z,91781.00
2023-01-19T17:40:06.004Z,91783.00
2023-01-19T17:41:05.937Z,91783.00
2023-01-19T17:42:05.970Z,91783.00
2023-01-19T17:48:05.963Z,91790.00
2023-01-19T17:49:05.963Z,91788.00
2023-01-19T17:50:05.953Z,91792.00
2023-01-19T17:51:05.966Z,91794.00
2023-01-19T17:52:05.967Z,91792.00
2023-01-19T17:53:05.972Z,91788.00
2023-01-19T17:54:06.571Z,91790.00
2023-01-19T17:55:05.915Z,91788.00
2023-01-19T17:56:05.912Z,91790.00
2023-01-19T17:57:06.071Z,91792.00
2023-01-19T17:58:05.889Z,91792.00
2023-01-19T17:59:05.860Z,91796.00
2023-01-19T18:00:05.837Z,91796.00
2023-01-19T18:01:05.920Z,91796.00
2023-01-19T18:02:05.858Z,91800.00
2023-01-19T18:03:05.826Z,91798.00
2023-01-19T18:04:05.835Z,91800.00
2023-01-19T18:05:05.828Z,91802.00
2023-01-19T18:06:05.823Z,91802.00
2023-01-19T18:07:05.822Z,91804.00
2023-01-19T18:08:05.828Z,91804.00
2023-01-19T18:09:05.812Z,91804.00
2023-01-19T18:10:05.834Z,91804.00
2023-01-19T18:11:05.905Z,91806.00
2023-01-19T18:12:05.851Z,91806.00
2023-01-19T18:13:05.861Z,91808.00
2023-01-19T18:14:05.871Z,91806.00
2023-01-19T18:15:05.868Z,91808.00
2023-01-19T18:16:05.912Z,91810.00
2023-01-19T18:17:05.885Z,91806.00
2023-01-19T18:18:05.892Z,91806.00
2023-01-19T18:19:05.910Z,91810.00
2023-01-19T18:20:05.935Z,91808.00
2023-01-19T18:21:05.929Z,91812.00
2023-01-19T18:22:05.943Z,91810.00
2023-01-19T18:23:05.956Z,91808.00
2023-01-19T18:24:05.986Z,91808.00
2023-01-19T18:25:06.012Z,91810.00
2023-01-19T18:26:06.000Z,91810.00
2023-01-19T18:27:06.045Z,91812.00
2023-01-19T18:28:06.036Z,91810.00
2023-01-19T18:29:06.054Z,91810.00
2023-01-19T18:30:06.133Z,91810.00
2023-01-19T18:31:06.254Z,91810.00
2023-01-19T18:32:06.087Z,91812.00
2023-01-19T18:33:06.123Z,91810.00
2023-01-19T18:34:06.133Z,91810.00
2023-01-19T18:35:06.158Z,91810.00
2023-01-19T18:36:06.165Z,91810.00
2023-01-19T18:37:06.165Z,91808.00
2023-01-19T18:38:06.176Z,91810.00
2023-01-19T18:39:06.208Z,91810.00
2023-01-19T18:40:06.201Z,91806.00
2023-01-19T18:41:07.000Z,91804.00
2023-01-19T18:42:06.227Z,91806.00
2023-01-19T18:43:06.239Z,91804.00
2023-01-19T18:44:06.262Z,91804.00
2023-01-19T18:45:06.244Z,91804.00
2023-01-19T18:46:06.307Z,91804.00
2023-01-19T18:47:06.287Z,91804.00
2023-01-19T18:48:06.297Z,91806.00
2023-01-19T18:49:06.368Z,91804.00
2023-01-19T18:50:06.323Z,91806.00
2023-01-19T18:51:06.312Z,91804.00
2023-01-19T18:52:06.353Z,91800.00
2023-01-19T18:53:06.367Z,91802.00
2023-01-19T18:54:06.347Z,91804.00
2023-01-19T18:55:06.369Z,91804.00
2023-01-19T18:56:06.357Z,91802.00
2023-01-19T18:57:06.396Z,91800.00
2023-01-19T18:58:06.379Z,91800.00
2023-01-19T18:59:06.365Z,91798.00
2023-01-19T19:00:06.389Z,91800.00
2023-01-19T19:01:06.472Z,91800.00
2023-01-19T19:02:06.457Z,91798.00
2023-01-19T19:03:06.426Z,91796.00
2023-01-19T19:04:06.432Z,91794.00
2023-01-19T19:05:06.424Z,91794.00
2023-01-19T19:06:06.510Z,91794.00
2023-01-19T19:07:06.421Z,91792.00
2023-01-19T19:08:06.490Z,91794.00
2023-01-19T19:09:06.443Z,91792.00
2023-01-19T19:10:06.465Z,91792.00
2023-01-19T19:11:06.452Z,91794.00
2023-01-19T19:12:06.472Z,91794.00
2023-01-19T19:13:06.534Z,91794.00
2023-01-19T19:14:06.481Z,91794.00
2023-01-19T19:15:06.463Z,91794.00
2023-01-19T19:16:06.591Z,91792.00
2023-01-19T19:17:06.486Z,91790.00
2023-01-19T19:18:06.525Z,91790.00
2023-01-19T19:19:06.446Z,91788.00
2023-01-19T19:20:06.426Z,91786.00
2023-01-19T19:21:06.444Z,91788.00
2023-01-19T19:22:06.366Z,91784.00
2023-01-19T19:23:06.338Z,91786.00
2023-01-19T19:24:06.330Z,91786.00
2023-01-19T19:25:07.087Z,91784.00
2023-01-19T19:26:06.312Z,91779.00
2023-01-19T19:27:07.094Z,91779.00
2023-01-19T19:28:06.213Z,91783.00
2023-01-19T19:29:06.196Z,91779.00
2023-01-19T19:30:06.184Z,91781.00
2023-01-19T19:31:06.310Z,91781.00
2023-01-19T19:32:06.076Z,91786.00
2023-01-19T19:33:06.066Z,91784.00
2023-01-19T19:34:06.047Z,91788.00
2023-01-19T19:35:06.007Z,91784.00
2023-01-19T19:36:05.995Z,91784.00
2023-01-19T19:37:05.962Z,91786.00
2023-01-19T19:38:05.953Z,91786.00
2023-01-19T19:39:05.956Z,91786.00
2023-01-19T19:40:05.941Z,91783.00
2023-01-19T19:41:05.905Z,91783.00
2023-01-19T19:42:05.924Z,91784.00
2023-01-19T19:43:05.904Z,91784.00
2023-01-19T19:44:05.905Z,91784.00
2023-01-19T19:45:05.892Z,91783.00
2023-01-19T19:46:06.042Z,91781.00
2023-01-19T19:47:05.911Z,91783.00
2023-01-19T19:48:05.913Z,91784.00
2023-01-19T19:49:05.921Z,91784.00
2023-01-19T19:50:05.978Z,91786.00
2023-01-19T19:51:17.038Z,91786.00
2023-01-19T19:52:06.802Z,91786.00
2023-01-19T19:53:05.748Z,91784.00
2023-01-19T19:54:05.699Z,91783.00
2023-01-19T19:55:05.659Z,91784.00
2023-01-19T19:56:05.574Z,91784.00
2023-01-19T19:57:05.520Z,91784.00
2023-01-19T20:01:06.328Z,91781.00
2023-01-19T20:11:05.605Z,91786.00
2023-01-19T23:55:56.437Z,91861.00
2023-01-19T23:56:56.389Z,91865.00
2023-01-19T23:57:56.329Z,91865.00
2023-01-19T23:58:56.357Z,91863.00
2023-01-19T23:59:56.229Z,91863.00
